createdAt,value
2022-11-17T00:01:07.607Z,78.11
2022-11-17T00:03:38.858Z,78.04
2022-11-17T00:06:08.066Z,78.01
2022-11-17T00:08:40.950Z,78.00
2022-11-17T00:11:11.633Z,77.86
2022-11-17T00:13:59.654Z,77.89
2022-11-17T00:16:32.293Z,77.95
2022-11-17T00:19:19.728Z,77.89
2022-11-17T00:21:48.828Z,77.93
2022-11-17T00:24:17.934Z,77.79
2022-11-17T00:27:01.098Z,77.85
2022-11-17T00:29:30.457Z,77.65
2022-11-17T00:32:19.311Z,77.61
2022-11-17T00:34:47.920Z,77.79
2022-11-17T00:37:16.601Z,77.81
2022-11-17T00:39:47.458Z,77.72
2022-11-17T00:42:16.095Z,77.84
2022-11-17T00:44:47.141Z,77.81
2022-11-17T00:47:15.554Z,77.74
2022-11-17T00:49:44.586Z,77.58
2022-11-17T00:52:13.035Z,77.63
2022-11-17T00:54:41.527Z,77.66
2022-11-17T00:57:10.273Z,77.65
2022-11-17T00:59:38.748Z,77.73
2022-11-17T01:02:07.236Z,77.67
2022-11-17T01:04:35.616Z,77.67
2022-11-17T01:07:04.121Z,77.50
2022-11-17T01:09:32.515Z,77.61
2022-11-17T01:12:01.980Z,77.57
2022-11-17T01:14:33.642Z,77.46
2022-11-17T01:17:02.633Z,77.55
2022-11-17T01:19:31.152Z,77.58
2022-11-17T01:22:03.654Z,77.48
2022-11-17T01:24:33.808Z,77.36
2022-11-17T01:27:03.812Z,77.27
2022-11-17T01:29:32.700Z,77.38
2022-11-17T01:32:04.585Z,77.48
2022-11-17T01:34:33.443Z,77.32
2022-11-17T01:37:20.992Z,77.30
2022-11-17T01:39:50.238Z,77.15
2022-11-17T01:42:20.707Z,77.18
2022-11-17T01:45:08.149Z,77.14
2022-11-17T01:47:46.677Z,77.39
2022-11-17T01:50:25.165Z,77.24
2022-11-17T01:53:00.532Z,77.19
2022-11-17T01:55:35.598Z,77.21
2022-11-17T01:58:08.213Z,77.20
2022-11-17T02:00:36.892Z,77.22
2022-11-17T02:03:06.590Z,77.14
2022-11-17T02:05:45.284Z,77.02
2022-11-17T02:08:16.050Z,77.09
2022-11-17T02:10:51.308Z,76.92
2022-11-17T02:13:22.183Z,77.15
2022-11-17T02:15:50.868Z,76.96
2022-11-17T02:18:20.600Z,76.96
2022-11-17T02:21:10.152Z,77.08
2022-11-17T02:24:11.533Z,77.05
2022-11-17T02:27:37.672Z,77.05
2022-11-17T02:30:10.870Z,76.99
2022-11-17T02:33:05.091Z,76.89
2022-11-17T02:35:44.260Z,76.82
2022-11-17T02:38:22.471Z,76.99
2022-11-17T02:41:05.403Z,76.99
2022-11-17T02:44:00.203Z,76.98
2022-11-17T02:46:43.528Z,76.92
2022-11-17T02:49:20.806Z,76.94
2022-11-17T02:51:53.801Z,76.86
2022-11-17T02:54:23.882Z,76.83
2022-11-17T02:56:52.607Z,76.83
2022-11-17T02:59:25.399Z,76.79
2022-11-17T03:02:19.893Z,76.83
2022-11-17T03:05:05.381Z,76.75
2022-11-17T03:07:50.634Z,76.81
2022-11-17T03:10:24.855Z,76.76
2022-11-17T03:13:02.247Z,76.72
2022-11-17T03:15:42.774Z,76.83
2022-11-17T03:18:18.783Z,76.79
2022-11-17T03:20:56.817Z,76.67
2022-11-17T03:23:33.867Z,76.74
2022-11-17T03:26:10.587Z,76.76
2022-11-17T03:28:41.315Z,76.72
2022-11-17T03:31:12.107Z,76.73
2022-11-17T03:33:43.220Z,76.73
2022-11-17T03:36:23.968Z,76.76
2022-11-17T03:39:01.024Z,76.66
2022-11-17T03:41:33.661Z,76.68
2022-11-17T03:44:06.590Z,76.63
2022-11-17T03:46:42.213Z,76.76
2022-11-17T03:49:20.628Z,76.66
2022-11-17T03:51:48.582Z,76.57
2022-11-17T03:54:17.350Z,76.55
2022-11-17T03:56:53.235Z,76.58
2022-11-17T03:59:27.820Z,76.51
2022-11-17T04:01:56.675Z,76.55
2022-11-17T04:04:45.185Z,76.53
2022-11-17T04:07:13.822Z,76.58
2022-11-17T04:09:44.406Z,76.60
2022-11-17T04:12:31.935Z,76.48
2022-11-17T04:15:25.519Z,76.72
2022-11-17T04:17:54.028Z,76.56
2022-11-17T04:20:23.268Z,76.64
2022-11-17T04:23:07.428Z,76.62
2022-11-17T04:25:55.806Z,76.51
2022-11-17T04:28:37.388Z,76.50
2022-11-17T04:31:09.230Z,76.48
2022-11-17T04:33:39.996Z,76.58
2022-11-17T04:36:10.358Z,76.54
2022-11-17T04:38:43.153Z,76.70
2022-11-17T04:41:39.126Z,76.44
2022-11-17T04:44:09.653Z,76.42
2022-11-17T04:46:44.016Z,76.56
2022-11-17T04:49:13.183Z,76.49
2022-11-17T04:51:43.031Z,76.54
2022-11-17T04:54:13.111Z,76.53
2022-11-17T04:56:41.902Z,76.40
2022-11-17T04:59:10.836Z,76.39
2022-11-17T05:01:43.272Z,76.41
2022-11-17T05:04:14.044Z,76.43
2022-11-17T05:06:44.226Z,76.51
2022-11-17T05:09:19.400Z,76.48
2022-11-17T05:12:11.076Z,76.43
2022-11-17T05:14:47.062Z,76.44
2022-11-17T05:17:15.508Z,76.42
2022-11-17T05:19:48.399Z,76.49
2022-11-17T05:22:40.963Z,76.44
2022-11-17T05:25:10.581Z,76.36
2022-11-17T05:27:38.979Z,76.47
2022-11-17T05:30:15.011Z,76.51
2022-11-17T05:32:45.878Z,76.49
2022-11-17T05:35:15.009Z,76.54
2022-11-17T05:37:45.115Z,76.47
2022-11-17T05:40:14.904Z,76.43
2022-11-17T05:42:44.158Z,76.33
2022-11-17T05:45:14.827Z,76.41
2022-11-17T05:47:43.177Z,76.44
2022-11-17T05:50:14.175Z,76.49
2022-11-17T05:52:42.953Z,76.47
2022-11-17T05:55:11.348Z,76.44
2022-11-17T05:57:40.744Z,76.43
2022-11-17T06:00:14.393Z,76.46
2022-11-17T06:02:49.530Z,76.43
2022-11-17T06:05:20.384Z,76.29
2022-11-17T06:07:49.792Z,76.29
2022-11-17T06:10:21.188Z,76.28
2022-11-17T06:12:50.104Z,76.42
2022-11-17T06:15:18.911Z,76.42
2022-11-17T06:17:51.586Z,76.42
2022-11-17T06:20:24.407Z,76.43
2022-11-17T06:22:55.659Z,76.32
2022-11-17T06:25:25.164Z,76.24
2022-11-17T06:27:55.842Z,76.24
2022-11-17T06:30:25.074Z,76.39
2022-11-17T06:32:55.836Z,76.34
2022-11-17T06:35:25.133Z,76.26
2022-11-17T06:37:54.463Z,76.39
2022-11-17T06:40:25.148Z,76.35
2022-11-17T06:43:11.506Z,76.29
2022-11-17T06:45:42.911Z,76.27
2022-11-17T06:48:13.487Z,76.28
2022-11-17T06:50:42.666Z,76.30
2022-11-17T06:53:12.623Z,76.34
2022-11-17T06:55:41.375Z,76.31
2022-11-17T06:58:12.989Z,76.36
2022-11-17T07:00:41.408Z,76.27
2022-11-17T07:03:11.353Z,76.28
2022-11-17T07:05:40.672Z,76.25
2022-11-17T07:08:09.646Z,76.14
2022-11-17T07:10:38.493Z,76.18
2022-11-17T07:13:06.938Z,76.18
2022-11-17T07:15:38.455Z,76.26
2022-11-17T07:18:09.710Z,76.12
2022-11-17T07:20:39.944Z,76.25
2022-11-17T07:23:15.495Z,76.21
2022-11-17T07:25:44.096Z,76.21
2022-11-17T07:28:14.387Z,76.09
2022-11-17T07:30:42.978Z,76.14
2022-11-17T07:33:11.467Z,76.04
2022-11-17T07:35:40.560Z,76.15
2022-11-17T07:38:08.996Z,76.05
2022-11-17T07:40:39.725Z,75.93
2022-11-17T07:43:08.018Z,76.08
2022-11-17T07:45:37.510Z,76.08
2022-11-17T07:48:07.189Z,75.92
2022-11-17T07:50:40.452Z,75.95
2022-11-17T07:53:08.795Z,75.96
2022-11-17T07:55:37.579Z,75.78
2022-11-17T07:58:06.170Z,75.80
2022-11-17T08:00:36.160Z,75.82
2022-11-17T08:03:05.179Z,75.65
2022-11-17T08:05:41.616Z,75.63
2022-11-17T08:08:12.935Z,75.73
2022-11-17T08:10:42.745Z,75.72
2022-11-17T08:13:12.522Z,75.69
2022-11-17T08:15:41.215Z,75.77
2022-11-17T08:18:09.821Z,75.72
2022-11-17T08:20:38.416Z,75.64
2022-11-17T08:23:07.681Z,75.67
2022-11-17T08:25:36.188Z,75.77
2022-11-17T08:28:05.316Z,75.72
2022-11-17T08:30:35.385Z,75.83
2022-11-17T08:33:06.716Z,75.76
2022-11-17T08:35:37.663Z,75.54
2022-11-17T08:38:07.162Z,75.73
2022-11-17T08:40:37.400Z,75.65
2022-11-17T08:43:07.539Z,75.60
2022-11-17T08:45:36.337Z,75.67
2022-11-17T08:48:06.965Z,75.78
2022-11-17T08:50:35.830Z,75.79
2022-11-17T08:53:04.462Z,75.72
2022-11-17T08:55:40.972Z,75.78
2022-11-17T08:58:11.656Z,75.86
2022-11-17T09:00:41.533Z,75.79
2022-11-17T09:03:10.939Z,75.89
2022-11-17T09:05:43.506Z,75.80
2022-11-17T09:11:06.184Z,75.71
2022-11-17T09:13:35.198Z,75.57
2022-11-17T09:16:06.456Z,75.65
2022-11-17T09:18:37.562Z,75.63
2022-11-17T09:21:08.656Z,75.72
2022-11-17T09:23:37.608Z,75.73
2022-11-17T09:26:09.298Z,75.59
2022-11-17T09:28:38.528Z,75.65
2022-11-17T09:31:09.998Z,75.61
2022-11-17T09:33:38.897Z,75.64
2022-11-17T09:36:08.659Z,75.64
2022-11-17T09:38:38.366Z,75.45
2022-11-17T09:41:24.006Z,75.37
2022-11-17T09:44:07.670Z,75.38
2022-11-17T09:46:54.683Z,75.50
2022-11-17T09:49:35.270Z,75.37
2022-11-17T09:52:13.243Z,75.53
2022-11-17T09:54:47.667Z,75.53
2022-11-17T09:57:22.397Z,75.47
2022-11-17T10:00:05.709Z,75.42
2022-11-17T10:02:34.484Z,75.49
2022-11-17T10:05:12.149Z,75.43
2022-11-17T10:07:50.041Z,75.50
2022-11-17T10:10:22.509Z,75.46
2022-11-17T10:12:57.262Z,75.47
2022-11-17T10:15:29.765Z,75.47
2022-11-17T10:17:58.216Z,75.21
2022-11-17T10:20:26.966Z,75.18
2022-11-17T10:22:56.900Z,75.35
2022-11-17T10:25:37.417Z,75.26
2022-11-17T10:28:08.068Z,75.46
2022-11-17T10:30:38.396Z,75.48
2022-11-17T10:33:06.916Z,75.54
2022-11-17T10:35:36.508Z,75.47
2022-11-17T10:38:16.564Z,75.53
2022-11-17T10:40:50.590Z,75.55
2022-11-17T10:43:26.016Z,75.60
2022-11-17T10:45:57.233Z,75.53
2022-11-17T10:48:29.126Z,75.41
2022-11-17T10:50:59.878Z,75.34
2022-11-17T10:53:37.016Z,75.23
2022-11-17T10:56:16.720Z,75.28
2022-11-17T10:59:02.833Z,75.25
2022-11-17T11:01:37.655Z,75.31
2022-11-17T11:04:25.991Z,75.37
2022-11-17T11:07:07.644Z,75.14
2022-11-17T11:09:37.320Z,75.31
2022-11-17T11:12:14.678Z,75.13
2022-11-17T11:15:08.699Z,75.20
2022-11-17T11:17:37.167Z,75.17
2022-11-17T11:20:14.194Z,75.28
2022-11-17T11:22:53.325Z,75.20
2022-11-17T11:25:34.521Z,75.13
2022-11-17T11:28:30.052Z,75.11
2022-11-17T11:31:08.897Z,75.08
2022-11-17T11:33:44.870Z,75.18
2022-11-17T11:36:34.238Z,75.17
2022-11-17T11:39:15.047Z,75.18
2022-11-17T11:42:07.694Z,75.26
2022-11-17T11:44:55.182Z,75.33
2022-11-17T11:47:40.827Z,75.24
2022-11-17T11:50:15.744Z,75.15
2022-11-17T11:52:50.057Z,75.25
2022-11-17T11:55:24.918Z,75.27
2022-11-17T11:58:00.840Z,75.27
2022-11-17T12:00:29.475Z,75.03
2022-11-17T12:03:08.652Z,74.98
2022-11-17T12:05:45.648Z,75.12
2022-11-17T12:08:20.776Z,75.03
2022-11-17T12:10:56.438Z,75.10
2022-11-17T12:13:26.600Z,75.17
2022-11-17T12:16:33.210Z,75.18
2022-11-17T12:19:02.140Z,75.23
2022-11-17T12:21:32.855Z,75.15
2022-11-17T12:24:17.875Z,75.16
2022-11-17T12:26:46.293Z,75.13
2022-11-17T12:29:46.796Z,75.16
2022-11-17T12:32:54.061Z,75.09
2022-11-17T12:35:28.250Z,75.13
2022-11-17T12:38:33.105Z,75.23
2022-11-17T12:41:01.925Z,75.04
2022-11-17T12:43:31.735Z,75.04
2022-11-17T12:46:17.061Z,74.90
2022-11-17T12:48:53.402Z,74.93
2022-11-17T12:51:31.075Z,74.78
2022-11-17T12:54:15.734Z,74.89
2022-11-17T12:56:53.063Z,74.86
2022-11-17T13:00:07.037Z,74.82
2022-11-17T13:03:09.769Z,74.86
2022-11-17T13:05:38.417Z,74.89
2022-11-17T13:08:21.674Z,74.87
2022-11-17T13:10:54.048Z,74.78
2022-11-17T13:13:25.044Z,74.68
2022-11-17T13:15:59.410Z,74.66
2022-11-17T13:18:32.403Z,74.68
2022-11-17T13:21:02.620Z,74.51
2022-11-17T13:23:36.017Z,74.48
2022-11-17T13:26:21.625Z,74.48
2022-11-17T13:29:10.900Z,74.40
2022-11-17T13:31:39.916Z,74.39
2022-11-17T13:34:17.094Z,74.44
2022-11-17T13:36:54.442Z,74.32
2022-11-17T13:39:27.244Z,74.42
2022-11-17T13:41:57.987Z,74.38
2022-11-17T13:44:37.102Z,74.29
2022-11-17T13:47:21.174Z,74.51
2022-11-17T13:49:50.292Z,74.44
2022-11-17T13:52:37.995Z,74.42
2022-11-17T13:55:17.893Z,74.52
2022-11-17T13:57:54.663Z,74.51
2022-11-17T14:00:25.215Z,74.56
2022-11-17T14:03:28.351Z,74.48
2022-11-17T14:06:02.734Z,74.44
2022-11-17T14:08:34.054Z,74.37
2022-11-17T14:11:21.029Z,74.34
2022-11-17T14:13:58.261Z,74.23
2022-11-17T14:16:40.702Z,74.08
2022-11-17T14:19:32.856Z,74.21
2022-11-17T14:22:04.292Z,74.34
2022-11-17T14:24:34.611Z,74.27
2022-11-17T14:27:11.986Z,74.59
2022-11-17T14:29:40.482Z,74.57
2022-11-17T14:32:09.161Z,74.50
2022-11-17T14:34:37.474Z,74.46
2022-11-17T14:37:10.476Z,74.43
2022-11-17T14:39:41.363Z,74.10
2022-11-17T14:42:11.391Z,73.89
2022-11-17T14:44:39.941Z,73.61
2022-11-17T14:47:12.252Z,73.42
2022-11-17T14:49:40.975Z,73.71
2022-11-17T14:52:09.612Z,73.89
2022-11-17T14:54:38.328Z,73.72
2022-11-17T14:57:11.284Z,73.84
2022-11-17T14:59:48.501Z,73.78
2022-11-17T15:02:17.094Z,73.79
2022-11-17T15:04:51.475Z,73.72
2022-11-17T15:07:20.802Z,73.77
2022-11-17T15:09:49.628Z,73.67
2022-11-17T15:12:18.205Z,73.71
2022-11-17T15:14:48.382Z,73.68
2022-11-17T15:17:16.991Z,73.58
2022-11-17T15:19:45.546Z,73.83
2022-11-17T15:22:13.922Z,73.81
2022-11-17T15:24:47.979Z,73.79
2022-11-17T15:27:16.593Z,73.96
2022-11-17T15:29:46.249Z,73.87
2022-11-17T15:32:16.198Z,73.90
2022-11-17T15:34:46.730Z,73.84
2022-11-17T15:37:21.093Z,74.03
2022-11-17T15:39:50.125Z,74.04
2022-11-17T15:42:29.934Z,74.15
2022-11-17T15:45:01.067Z,74.01
2022-11-17T15:47:29.654Z,74.16
2022-11-17T15:49:58.052Z,74.30
2022-11-17T15:52:56.609Z,74.30
2022-11-17T15:55:17.524Z,74.27
2022-11-17T15:57:45.918Z,74.29
2022-11-17T16:00:19.378Z,74.33
2022-11-17T16:02:54.457Z,74.05
2022-11-17T16:05:27.191Z,73.74
2022-11-17T16:07:58.245Z,73.62
2022-11-17T16:10:26.956Z,73.62
2022-11-17T16:12:55.915Z,73.53
2022-11-17T16:15:24.618Z,73.70
2022-11-17T16:17:53.209Z,73.83
2022-11-17T16:20:21.830Z,73.80
2022-11-17T16:22:50.908Z,73.85
2022-11-17T16:25:19.814Z,73.79
2022-11-17T16:27:57.784Z,73.80
2022-11-17T16:30:34.190Z,73.95
2022-11-17T16:33:09.942Z,73.94
2022-11-17T16:35:39.813Z,74.03
2022-11-17T16:38:15.958Z,74.02
2022-11-17T16:40:44.929Z,74.16
2022-11-17T16:43:14.892Z,74.09
2022-11-17T16:45:47.851Z,74.37
2022-11-17T16:48:18.485Z,74.31
2022-11-17T16:50:47.950Z,74.35
2022-11-17T16:53:17.743Z,74.29
2022-11-17T16:55:57.477Z,74.29
2022-11-17T16:58:26.911Z,74.46
2022-11-17T17:00:55.617Z,74.68
2022-11-17T17:03:28.691Z,74.41
2022-11-17T17:05:57.543Z,74.42
2022-11-17T17:08:28.434Z,74.40
2022-11-17T17:11:02.899Z,74.34
2022-11-17T17:13:31.704Z,74.49
2022-11-17T17:16:03.738Z,74.42
2022-11-17T17:18:32.936Z,74.56
2022-11-17T17:21:20.302Z,74.41
2022-11-17T17:23:51.738Z,74.49
2022-11-17T17:29:06.096Z,74.39
2022-11-17T17:31:41.218Z,74.61
2022-11-17T17:34:13.431Z,74.41
2022-11-17T17:36:42.399Z,74.75
2022-11-17T17:39:15.567Z,74.63
2022-11-17T17:41:47.730Z,74.55
2022-11-17T17:44:20.861Z,74.46
2022-11-17T17:46:50.400Z,74.44
2022-11-17T17:49:19.719Z,74.48
2022-11-17T17:51:48.643Z,74.50
2022-11-17T17:54:20.146Z,74.61
2022-11-17T17:56:49.373Z,74.68
2022-11-17T17:59:19.596Z,74.68
2022-11-17T18:01:49.236Z,74.57
2022-11-17T18:04:23.951Z,74.72
2022-11-17T18:06:52.541Z,74.61
2022-11-17T18:09:22.977Z,74.75
2022-11-17T18:11:53.363Z,74.56
2022-11-17T18:14:23.519Z,74.62
2022-11-17T18:16:57.248Z,74.62
2022-11-17T18:19:32.778Z,74.63
2022-11-17T18:22:05.458Z,74.56
2022-11-17T18:25:07.718Z,74.60
2022-11-17T18:27:40.468Z,74.48
2022-11-17T18:30:12.362Z,74.56
2022-11-17T18:32:46.251Z,74.50
2022-11-17T18:35:25.412Z,74.56
2022-11-17T18:37:57.201Z,74.41
2022-11-17T18:40:25.928Z,74.38
2022-11-17T18:42:58.251Z,74.31
2022-11-17T18:45:28.528Z,74.46
2022-11-17T18:47:57.326Z,74.34
2022-11-17T18:50:47.569Z,74.36
2022-11-17T18:53:23.306Z,74.46
2022-11-17T18:55:52.235Z,74.49
2022-11-17T18:58:20.770Z,74.44
2022-11-17T19:00:51.558Z,74.53
2022-11-17T19:03:20.068Z,74.47
2022-11-17T19:05:48.436Z,74.55
2022-11-17T19:08:22.741Z,74.54
2022-11-17T19:10:54.534Z,74.40
2022-11-17T19:13:24.207Z,74.41
2022-11-17T19:15:53.456Z,74.43
2022-11-17T19:18:21.930Z,74.41
2022-11-17T19:20:50.616Z,74.38
2022-11-17T19:23:18.975Z,74.46
2022-11-17T19:25:48.062Z,74.31
2022-11-17T19:28:16.784Z,74.18
2022-11-17T19:30:47.774Z,74.39
2022-11-17T19:33:20.773Z,74.30
2022-11-17T19:35:49.253Z,74.39
2022-11-17T19:38:17.631Z,74.27
2022-11-17T19:40:46.118Z,74.35
2022-11-17T19:43:18.940Z,74.38
2022-11-17T19:45:47.381Z,74.42
2022-11-17T19:48:15.840Z,74.48
2022-11-17T19:50:54.580Z,74.30
2022-11-17T19:53:25.737Z,74.25
2022-11-17T19:55:54.041Z,74.34
2022-11-17T19:58:22.653Z,74.26
2022-11-17T20:00:51.006Z,74.34
2022-11-17T20:03:20.675Z,74.65
2022-11-17T20:05:49.062Z,74.61
2022-11-17T20:08:21.702Z,74.77
2022-11-17T20:10:50.587Z,74.60
2022-11-17T20:13:19.033Z,74.38
2022-11-17T20:15:48.262Z,74.32
2022-11-17T20:18:19.227Z,74.14
2022-11-17T20:20:47.477Z,74.19
2022-11-17T20:23:16.037Z,74.23
2022-11-17T20:25:45.157Z,74.18
2022-11-17T20:28:13.497Z,74.31
2022-11-17T20:30:43.401Z,74.34
2022-11-17T20:33:15.178Z,74.35
2022-11-17T20:35:47.119Z,74.20
2022-11-17T20:38:16.011Z,74.28
2022-11-17T20:40:44.791Z,74.32
2022-11-17T20:43:14.970Z,74.09
2022-11-17T20:45:44.447Z,74.29
2022-11-17T20:48:15.723Z,74.28
2022-11-17T20:50:55.885Z,74.22
2022-11-17T20:53:24.743Z,74.20
2022-11-17T20:55:56.059Z,74.27
2022-11-17T20:58:26.039Z,74.25
2022-11-17T21:00:55.096Z,74.07
2022-11-17T21:03:26.816Z,73.89
2022-11-17T21:05:58.700Z,73.79
2022-11-17T21:08:30.869Z,74.01
2022-11-17T21:11:01.785Z,74.11
2022-11-17T21:13:31.610Z,74.16
2022-11-17T21:16:36.444Z,74.13
2022-11-17T21:19:05.282Z,73.85
2022-11-17T21:21:34.252Z,73.81
2022-11-17T21:24:04.780Z,73.80
2022-11-17T21:26:33.348Z,74.07
2022-11-17T21:29:06.384Z,74.17
2022-11-17T21:31:41.061Z,73.95
2022-11-17T21:34:16.217Z,73.83
2022-11-17T21:36:46.987Z,73.72
2022-11-17T21:39:18.857Z,73.71
2022-11-17T21:41:47.755Z,73.68
2022-11-17T21:44:33.526Z,73.67
2022-11-17T21:47:01.865Z,73.80
2022-11-17T21:49:30.462Z,74.01
2022-11-17T21:51:58.748Z,73.91
2022-11-17T21:54:27.615Z,73.71
2022-11-17T21:56:59.008Z,73.81
2022-11-17T22:02:16.397Z,73.80
2022-11-17T22:04:48.935Z,73.74
2022-11-17T22:07:19.006Z,73.57
2022-11-17T22:09:48.908Z,73.74
2022-11-17T22:12:18.450Z,73.80
2022-11-17T22:14:49.633Z,73.77
2022-11-17T22:17:18.258Z,73.71
2022-11-17T22:19:47.897Z,73.75
2022-11-17T22:22:16.199Z,73.87
2022-11-17T22:24:51.501Z,73.85
2022-11-17T22:27:25.797Z,73.90
2022-11-17T22:29:54.430Z,73.76
2022-11-17T22:32:22.759Z,73.80
2022-11-17T22:34:51.423Z,73.85
2022-11-17T22:37:23.649Z,73.81
2022-11-17T22:39:52.168Z,73.94
2022-11-17T22:42:22.643Z,73.81
2022-11-17T22:44:51.098Z,73.84
2022-11-17T22:47:30.027Z,73.82
2022-11-17T22:50:00.831Z,73.82
2022-11-17T22:52:29.362Z,73.63
2022-11-17T22:54:57.689Z,73.78
2022-11-17T22:57:26.003Z,73.83
2022-11-17T22:59:54.440Z,73.83
2022-11-17T23:02:22.967Z,73.75
2022-11-17T23:04:51.563Z,73.68
2022-11-17T23:07:22.468Z,73.69
2022-11-17T23:09:51.227Z,73.70
2022-11-17T23:12:19.698Z,73.72
2022-11-17T23:14:49.067Z,73.81
2022-11-17T23:17:20.825Z,73.89
2022-11-17T23:19:51.213Z,73.92
2022-11-17T23:22:26.731Z,73.93
2022-11-17T23:24:55.314Z,74.06
2022-11-17T23:27:24.015Z,74.09
2022-11-17T23:29:55.756Z,74.23
2022-11-17T23:32:24.425Z,74.24
2022-11-17T23:34:52.797Z,74.40
2022-11-17T23:37:21.586Z,74.38
2022-11-17T23:39:53.949Z,74.32
2022-11-17T23:42:33.441Z,74.33
2022-11-17T23:45:08.257Z,74.25
2022-11-17T23:47:42.122Z,74.21
2022-11-17T23:50:13.617Z,74.24
2022-11-17T23:52:42.416Z,74.41
2022-11-17T23:55:13.917Z,74.37
2022-11-17T23:57:43.040Z,74.38
